sensor_id;sensor_type;location;lat;lon;timestamp;pressure;altitude;pressure_sealevel;temperature;humidity
15750;BME280;7976;52.526;13.326;2022-10-16T00:01:28;100681.03;;;16.32;91.08
15750;BME280;7976;52.526;13.326;2022-10-16T00:03:58;100685.38;;;16.33;90.79
15750;BME280;7976;52.526;13.326;2022-10-16T00:06:27;100687.09;;;16.34;90.38
15750;BME280;7976;52.526;13.326;2022-10-16T00:08:56;100684.44;;;16.34;90.60
15750;BME280;7976;52.526;13.326;2022-10-16T00:11:26;100687.81;;;16.36;90.81
15750;BME280;7976;52.526;13.326;2022-10-16T00:13:57;100693.03;;;16.38;90.70
15750;BME280;7976;52.526;13.326;2022-10-16T00:16:26;100688.56;;;16.38;90.96
15750;BME280;7976;52.526;13.326;2022-10-16T00:18:54;100689.44;;;16.39;90.80
15750;BME280;7976;52.526;13.326;2022-10-16T00:21:24;100685.84;;;16.40;90.54
15750;BME280;7976;52.526;13.326;2022-10-16T00:23:55;100696.31;;;16.41;90.79
15750;BME280;7976;52.526;13.326;2022-10-16T00:26:23;100697.25;;;16.40;90.60
15750;BME280;7976;52.526;13.326;2022-10-16T00:28:51;100698.94;;;16.41;90.69
15750;BME280;7976;52.526;13.326;2022-10-16T00:31:21;100705.19;;;16.40;90.96
15750;BME280;7976;52.526;13.326;2022-10-16T00:33:49;100707.81;;;16.40;90.86
15750;BME280;7976;52.526;13.326;2022-10-16T00:36:20;100708.13;;;16.36;90.46
15750;BME280;7976;52.526;13.326;2022-10-16T00:38:49;100716.72;;;16.39;90.65
15750;BME280;7976;52.526;13.326;2022-10-16T00:41:20;100715.00;;;16.38;90.87
15750;BME280;7976;52.526;13.326;2022-10-16T00:43:50;100711.44;;;16.39;90.75
15750;BME280;7976;52.526;13.326;2022-10-16T00:46:21;100714.06;;;16.39;91.06
15750;BME280;7976;52.526;13.326;2022-10-16T00:48:54;100711.44;;;16.39;90.96
15750;BME280;7976;52.526;13.326;2022-10-16T00:51:28;100704.41;;;16.38;91.07
15750;BME280;7976;52.526;13.326;2022-10-16T00:53:57;100706.13;;;16.39;91.28
15750;BME280;7976;52.526;13.326;2022-10-16T00:56:25;100707.91;;;16.39;91.20
15750;BME280;7976;52.526;13.326;2022-10-16T00:58:52;100719.34;;;16.39;90.97
15750;BME280;7976;52.526;13.326;2022-10-16T01:01:19;100723.88;;;16.37;91.39
15750;BME280;7976;52.526;13.326;2022-10-16T01:03:46;100725.56;;;16.38;91.15
15750;BME280;7976;52.526;13.326;2022-10-16T01:06:23;100724.63;;;16.39;91.16
15750;BME280;7976;52.526;13.326;2022-10-16T01:09:06;100722.00;;;16.39;91.36
15750;BME280;7976;52.526;13.326;2022-10-16T01:11:47;100722.91;;;16.38;91.47
15750;BME280;7976;52.526;13.326;2022-10-16T01:14:27;100725.56;;;16.38;91.40
15750;BME280;7976;52.526;13.326;2022-10-16T01:17:02;100732.66;;;16.38;91.20
15750;BME280;7976;52.526;13.326;2022-10-16T01:20:02;100730.84;;;16.38;91.14
15750;BME280;7976;52.526;13.326;2022-10-16T01:22:41;100736.13;;;16.38;91.33
15750;BME280;7976;52.526;13.326;2022-10-16T01:25:19;100730.00;;;16.38;91.57
15750;BME280;7976;52.526;13.326;2022-10-16T01:27:50;100733.47;;;16.38;91.60
15750;BME280;7976;52.526;13.326;2022-10-16T01:30:23;100734.44;;;16.37;91.18
15750;BME280;7976;52.526;13.326;2022-10-16T01:32:57;100743.28;;;16.36;91.48
15750;BME280;7976;52.526;13.326;2022-10-16T01:35:32;100749.44;;;16.37;91.39
15750;BME280;7976;52.526;13.326;2022-10-16T01:38:06;100746.78;;;16.37;91.48
15750;BME280;7976;52.526;13.326;2022-10-16T01:40:39;100750.28;;;16.37;91.59
15750;BME280;7976;52.526;13.326;2022-10-16T01:43:15;100742.25;;;16.39;91.68
15750;BME280;7976;52.526;13.326;2022-10-16T01:45:45;100747.66;;;16.37;91.61
15750;BME280;7976;52.526;13.326;2022-10-16T01:48:16;100751.97;;;16.38;91.37
15750;BME280;7976;52.526;13.326;2022-10-16T01:50:50;100750.19;;;16.39;91.70
15750;BME280;7976;52.526;13.326;2022-10-16T01:53:20;100745.00;;;16.37;91.48
15750;BME280;7976;52.526;13.326;2022-10-16T01:55:50;100747.66;;;16.37;91.51
15750;BME280;7976;52.526;13.326;2022-10-16T01:58:23;100753.03;;;16.36;91.59
15750;BME280;7976;52.526;13.326;2022-10-16T02:00:53;100752.16;;;16.35;91.63
15750;BME280;7976;52.526;13.326;2022-10-16T02:03:22;100757.44;;;16.35;91.60
15750;BME280;7976;52.526;13.326;2022-10-16T02:05:53;100765.38;;;16.35;91.78
15750;BME280;7976;52.526;13.326;2022-10-16T02:08:23;100761.03;;;16.34;91.74
15750;BME280;7976;52.526;13.326;2022-10-16T02:10:51;100761.97;;;16.33;91.90
15750;BME280;7976;52.526;13.326;2022-10-16T02:13:26;100761.03;;;16.34;92.04
15750;BME280;7976;52.526;13.326;2022-10-16T02:15:54;100771.63;;;16.34;91.96
15750;BME280;7976;52.526;13.326;2022-10-16T02:18:21;100773.31;;;16.35;91.87
15750;BME280;7976;52.526;13.326;2022-10-16T02:20:53;100792.66;;;16.36;91.76
15750;BME280;7976;52.526;13.326;2022-10-16T02:23:31;100790.94;;;16.34;91.83
15750;BME280;7976;52.526;13.326;2022-10-16T02:26:06;100782.19;;;16.34;92.02
15750;BME280;7976;52.526;13.326;2022-10-16T02:28:42;100784.81;;;16.34;92.17
15750;BME280;7976;52.526;13.326;2022-10-16T02:31:17;100784.91;;;16.33;91.77
15750;BME280;7976;52.526;13.326;2022-10-16T02:33:46;100784.06;;;16.32;92.08
15750;BME280;7976;52.526;13.326;2022-10-16T02:36:13;100778.88;;;16.30;92.29
15750;BME280;7976;52.526;13.326;2022-10-16T02:38:40;100793.75;;;16.31;91.99
15750;BME280;7976;52.526;13.326;2022-10-16T02:41:08;100790.25;;;16.31;92.01
15750;BME280;7976;52.526;13.326;2022-10-16T02:43:36;100792.06;;;16.30;92.34
15750;BME280;7976;52.526;13.326;2022-10-16T02:46:03;100781.59;;;16.29;92.16
15750;BME280;7976;52.526;13.326;2022-10-16T02:48:30;100787.81;;;16.28;92.36
15750;BME280;7976;52.526;13.326;2022-10-16T02:50:56;100798.38;;;16.28;92.23
15750;BME280;7976;52.526;13.326;2022-10-16T02:53:23;100794.81;;;16.29;91.90
15750;BME280;7976;52.526;13.326;2022-10-16T02:55:50;100798.38;;;16.28;92.44
15750;BME280;7976;52.526;13.326;2022-10-16T02:58:16;100788.75;;;16.27;92.02
15750;BME280;7976;52.526;13.326;2022-10-16T03:00:45;100788.00;;;16.25;91.99
15750;BME280;7976;52.526;13.326;2022-10-16T03:03:12;100788.97;;;16.24;92.21
15750;BME280;7976;52.526;13.326;2022-10-16T03:05:38;100785.56;;;16.22;92.12
15750;BME280;7976;52.526;13.326;2022-10-16T03:08:05;100788.19;;;16.22;92.40
15750;BME280;7976;52.526;13.326;2022-10-16T03:10:32;100802.25;;;16.22;92.11
15750;BME280;7976;52.526;13.326;2022-10-16T03:12:59;100802.31;;;16.21;92.22
15750;BME280;7976;52.526;13.326;2022-10-16T03:15:25;100815.53;;;16.21;92.25
15750;BME280;7976;52.526;13.326;2022-10-16T03:17:57;100816.47;;;16.20;92.53
15750;BME280;7976;52.526;13.326;2022-10-16T03:20:24;100808.56;;;16.20;92.55
15750;BME280;7976;52.526;13.326;2022-10-16T03:22:50;100814.94;;;16.16;92.21
15750;BME280;7976;52.526;13.326;2022-10-16T03:25:18;100812.31;;;16.16;92.54
15750;BME280;7976;52.526;13.326;2022-10-16T03:27:44;100820.31;;;16.14;92.86
15750;BME280;7976;52.526;13.326;2022-10-16T03:30:12;100827.41;;;16.14;92.89
15750;BME280;7976;52.526;13.326;2022-10-16T03:32:39;100830.22;;;16.11;93.02
15750;BME280;7976;52.526;13.326;2022-10-16T03:35:08;100824.19;;;16.09;93.09
15750;BME280;7976;52.526;13.326;2022-10-16T03:37:34;100829.56;;;16.07;92.69
15750;BME280;7976;52.526;13.326;2022-10-16T03:40:03;100838.50;;;16.05;93.19
15750;BME280;7976;52.526;13.326;2022-10-16T03:42:30;100843.78;;;16.05;93.19
15750;BME280;7976;52.526;13.326;2022-10-16T03:44:56;100843.97;;;16.02;93.27
15750;BME280;7976;52.526;13.326;2022-10-16T03:47:23;100839.59;;;16.01;93.27
15750;BME280;7976;52.526;13.326;2022-10-16T03:49:50;100855.44;;;16.01;93.10
15750;BME280;7976;52.526;13.326;2022-10-16T03:52:18;100860.72;;;16.01;93.32
15750;BME280;7976;52.526;13.326;2022-10-16T03:54:45;100858.94;;;16.01;93.39
15750;BME280;7976;52.526;13.326;2022-10-16T03:57:11;100852.81;;;16.01;93.58
15750;BME280;7976;52.526;13.326;2022-10-16T03:59:38;100870.38;;;16.02;93.37
15750;BME280;7976;52.526;13.326;2022-10-16T04:02:05;100859.81;;;16.02;93.74
15750;BME280;7976;52.526;13.326;2022-10-16T04:04:32;100862.44;;;16.02;93.46
15750;BME280;7976;52.526;13.326;2022-10-16T04:06:58;100867.72;;;16.02;93.95
15750;BME280;7976;52.526;13.326;2022-10-16T04:09:26;100876.50;;;16.02;93.87
15750;BME280;7976;52.526;13.326;2022-10-16T04:11:53;100885.34;;;16.01;93.98
15750;BME280;7976;52.526;13.326;2022-10-16T04:14:20;100880.94;;;16.02;93.92
15750;BME280;7976;52.526;13.326;2022-10-16T04:16:47;100884.56;;;15.99;93.98
15750;BME280;7976;52.526;13.326;2022-10-16T04:19:14;100883.75;;;15.99;93.89
15750;BME280;7976;52.526;13.326;2022-10-16T04:21:40;100882.88;;;15.98;93.62
15750;BME280;7976;52.526;13.326;2022-10-16T04:24:07;100882.97;;;15.97;93.94
15750;BME280;7976;52.526;13.326;2022-10-16T04:26:35;100877.69;;;15.97;94.19
15750;BME280;7976;52.526;13.326;2022-10-16T04:29:02;100867.13;;;15.97;93.49
15750;BME280;7976;52.526;13.326;2022-10-16T04:31:29;100868.00;;;15.97;93.74
15750;BME280;7976;52.526;13.326;2022-10-16T04:33:56;100866.28;;;15.96;93.97
15750;BME280;7976;52.526;13.326;2022-10-16T04:36:23;100859.31;;;15.95;94.10
15750;BME280;7976;52.526;13.326;2022-10-16T04:38:49;100860.22;;;15.94;93.74
15750;BME280;7976;52.526;13.326;2022-10-16T04:41:16;100862.03;;;15.94;94.15
15750;BME280;7976;52.526;13.326;2022-10-16T04:43:44;100853.25;;;15.93;94.17
15750;BME280;7976;52.526;13.326;2022-10-16T04:46:11;100854.22;;;15.92;94.09
15750;BME280;7976;52.526;13.326;2022-10-16T04:48:38;100844.56;;;15.91;93.99
15750;BME280;7976;52.526;13.326;2022-10-16T04:51:04;100851.63;;;15.91;93.73
15750;BME280;7976;52.526;13.326;2022-10-16T04:53:31;100849.94;;;15.90;93.77
15750;BME280;7976;52.526;13.326;2022-10-16T04:55:59;100853.53;;;15.89;93.89
15750;BME280;7976;52.526;13.326;2022-10-16T04:58:25;100857.94;;;15.88;93.81
15750;BME280;7976;52.526;13.326;2022-10-16T05:00:53;100867.66;;;15.88;93.94
15750;BME280;7976;52.526;13.326;2022-10-16T05:03:20;100867.84;;;15.85;93.91
15750;BME280;7976;52.526;13.326;2022-10-16T05:05:47;100878.38;;;15.85;93.96
15750;BME280;7976;52.526;13.326;2022-10-16T05:08:15;100882.06;;;15.82;93.83
15750;BME280;7976;52.526;13.326;2022-10-16T05:10:43;100889.97;;;15.82;93.78
15750;BME280;7976;52.526;13.326;2022-10-16T05:13:10;100894.41;;;15.82;93.99
15750;BME280;7976;52.526;13.326;2022-10-16T05:15:37;100892.69;;;15.81;93.88
15750;BME280;7976;52.526;13.326;2022-10-16T05:18:05;100898.81;;;15.81;93.83
15750;BME280;7976;52.526;13.326;2022-10-16T05:20:32;100897.03;;;15.82;94.34
15750;BME280;7976;52.526;13.326;2022-10-16T05:22:59;100893.44;;;15.83;93.79
15750;BME280;7976;52.526;13.326;2022-10-16T05:25:26;100891.59;;;15.85;93.80
15750;BME280;7976;52.526;13.326;2022-10-16T05:27:52;100888.84;;;15.86;93.86
15750;BME280;7976;52.526;13.326;2022-10-16T05:30:19;100887.94;;;15.87;93.71
15750;BME280;7976;52.526;13.326;2022-10-16T05:32:47;100891.50;;;15.86;93.55
15750;BME280;7976;52.526;13.326;2022-10-16T05:35:17;100889.81;;;15.85;93.77
15750;BME280;7976;52.526;13.326;2022-10-16T05:37:44;100895.09;;;15.85;93.97
15750;BME280;7976;52.526;13.326;2022-10-16T05:40:12;100903.00;;;15.85;93.96
15750;BME280;7976;52.526;13.326;2022-10-16T05:42:39;100916.13;;;15.87;93.70
15750;BME280;7976;52.526;13.326;2022-10-16T05:45:09;100912.44;;;15.89;94.18
15750;BME280;7976;52.526;13.326;2022-10-16T05:47:36;100914.97;;;15.91;94.05
15750;BME280;7976;52.526;13.326;2022-10-16T05:50:04;100917.56;;;15.92;93.96
15750;BME280;7976;52.526;13.326;2022-10-16T05:52:32;100912.19;;;15.94;93.82
15750;BME280;7976;52.526;13.326;2022-10-16T05:54:59;100914.66;;;15.97;93.38
15750;BME280;7976;52.526;13.326;2022-10-16T05:57:26;100910.25;;;15.97;93.36
15750;BME280;7976;52.526;13.326;2022-10-16T05:59:52;100914.56;;;15.98;93.70
15750;BME280;7976;52.526;13.326;2022-10-16T06:02:19;100918.06;;;15.99;93.22
15750;BME280;7976;52.526;13.326;2022-10-16T06:04:46;100909.28;;;15.98;93.17
15750;BME280;7976;52.526;13.326;2022-10-16T06:07:12;100918.06;;;15.99;93.39
15750;BME280;7976;52.526;13.326;2022-10-16T06:09:40;100923.34;;;15.99;93.41
15750;BME280;7976;52.526;13.326;2022-10-16T06:12:07;100931.28;;;15.99;93.27
15750;BME280;7976;52.526;13.326;2022-10-16T06:14:34;100932.97;;;16.00;93.32
15750;BME280;7976;52.526;13.326;2022-10-16T06:17:01;100941.66;;;16.02;93.47
15750;BME280;7976;52.526;13.326;2022-10-16T06:19:27;100931.09;;;16.02;93.64
15750;BME280;7976;52.526;13.326;2022-10-16T06:21:54;100932.69;;;16.04;93.17
15750;BME280;7976;52.526;13.326;2022-10-16T06:24:23;100927.31;;;16.06;93.06
15750;BME280;7976;52.526;13.326;2022-10-16T06:26:51;100933.38;;;16.08;93.15
15750;BME280;7976;52.526;13.326;2022-10-16T06:29:18;100934.22;;;16.08;93.20
15750;BME280;7976;52.526;13.326;2022-10-16T06:31:45;100949.03;;;16.11;93.15
15750;BME280;7976;52.526;13.326;2022-10-16T06:34:11;100947.34;;;16.10;92.70
15750;BME280;7976;52.526;13.326;2022-10-16T06:36:39;100949.03;;;16.11;92.89
15750;BME280;7976;52.526;13.326;2022-10-16T06:39:06;100954.25;;;16.12;92.92
15750;BME280;7976;52.526;13.326;2022-10-16T06:41:33;100961.13;;;16.15;92.75
15750;BME280;7976;52.526;13.326;2022-10-16T06:44:13;100967.28;;;16.15;92.76
15750;BME280;7976;52.526;13.326;2022-10-16T06:46:40;100966.41;;;16.15;92.71
15750;BME280;7976;52.526;13.326;2022-10-16T06:49:07;100972.38;;;16.18;92.88
15750;BME280;7976;52.526;13.326;2022-10-16T06:51:34;100967.00;;;16.20;92.94
15750;BME280;7976;52.526;13.326;2022-10-16T06:54:02;100964.19;;;16.23;92.54
15750;BME280;7976;52.526;13.326;2022-10-16T06:56:30;100970.25;;;16.25;92.66
15750;BME280;7976;52.526;13.326;2022-10-16T06:58:57;100965.72;;;16.27;92.63
15750;BME280;7976;52.526;13.326;2022-10-16T07:01:27;100985.00;;;16.29;92.46
15750;BME280;7976;52.526;13.326;2022-10-16T07:03:54;100988.22;;;16.34;92.49
15750;BME280;7976;52.526;13.326;2022-10-16T07:06:24;100990.50;;;16.40;92.51
15750;BME280;7976;52.526;13.326;2022-10-16T07:08:52;100998.16;;;16.45;92.07
15750;BME280;7976;52.526;13.326;2022-10-16T07:11:21;101000.50;;;16.51;91.90
15750;BME280;7976;52.526;13.326;2022-10-16T07:13:50;101009.84;;;16.56;91.97
15750;BME280;7976;52.526;13.326;2022-10-16T07:16:20;101006.09;;;16.60;91.65
15750;BME280;7976;52.526;13.326;2022-10-16T07:18:48;101005.91;;;16.63;92.03
15750;BME280;7976;52.526;13.326;2022-10-16T07:21:19;101002.34;;;16.64;91.78
15750;BME280;7976;52.526;13.326;2022-10-16T07:23:51;101001.41;;;16.65;91.52
15750;BME280;7976;52.526;13.326;2022-10-16T07:26:17;100997.81;;;16.66;91.72
15750;BME280;7976;52.526;13.326;2022-10-16T07:28:44;101002.84;;;16.71;91.21
15750;BME280;7976;52.526;13.326;2022-10-16T07:31:13;100997.28;;;16.75;91.38
15750;BME280;7976;52.526;13.326;2022-10-16T07:33:42;100993.63;;;16.78;90.97
15750;BME280;7976;52.526;13.326;2022-10-16T07:36:11;100989.16;;;16.78;91.24
15750;BME280;7976;52.526;13.326;2022-10-16T07:38:38;101012.97;;;16.78;91.18
15750;BME280;7976;52.526;13.326;2022-10-16T07:41:07;101012.72;;;16.83;90.68
15750;BME280;7976;52.526;13.326;2022-10-16T07:43:35;101024.88;;;16.85;90.81
15750;BME280;7976;52.526;13.326;2022-10-16T07:46:02;101016.00;;;16.86;90.67
15750;BME280;7976;52.526;13.326;2022-10-16T07:48:33;101015.94;;;16.88;90.46
15750;BME280;7976;52.526;13.326;2022-10-16T07:51:01;101015.09;;;16.87;90.68
15750;BME280;7976;52.526;13.326;2022-10-16T07:53:30;101007.06;;;16.89;90.40
15750;BME280;7976;52.526;13.326;2022-10-16T07:55:58;101003.38;;;16.91;90.65
15750;BME280;7976;52.526;13.326;2022-10-16T07:58:25;101006.00;;;16.91;90.25
15750;BME280;7976;52.526;13.326;2022-10-16T08:00:53;101020.84;;;16.94;90.27
15750;BME280;7976;52.526;13.326;2022-10-16T08:03:20;101027.84;;;16.95;90.18
15750;BME280;7976;52.526;13.326;2022-10-16T08:05:46;101034.00;;;16.95;90.06
15750;BME280;7976;52.526;13.326;2022-10-16T08:08:15;101044.56;;;16.95;90.32
15750;BME280;7976;52.526;13.326;2022-10-16T08:10:43;101056.84;;;16.96;90.15
15750;BME280;7976;52.526;13.326;2022-10-16T08:13:10;101043.56;;;16.98;90.35
15750;BME280;7976;52.526;13.326;2022-10-16T08:15:38;101053.09;;;17.00;90.45
15750;BME280;7976;52.526;13.326;2022-10-16T08:18:05;101038.75;;;17.04;90.10
15750;BME280;7976;52.526;13.326;2022-10-16T08:20:33;101033.19;;;17.09;90.30
15750;BME280;7976;52.526;13.326;2022-10-16T08:23:00;101041.78;;;17.12;89.53
15750;BME280;7976;52.526;13.326;2022-10-16T08:25:28;101044.34;;;17.14;89.76
15750;BME280;7976;52.526;13.326;2022-10-16T08:27:56;101046.78;;;17.17;90.01
15750;BME280;7976;52.526;13.326;2022-10-16T08:30:24;101052.84;;;17.19;89.92
15750;BME280;7976;52.526;13.326;2022-10-16T08:32:51;101053.72;;;17.19;89.45
15750;BME280;7976;52.526;13.326;2022-10-16T08:35:18;101062.47;;;17.20;89.40
15750;BME280;7976;52.526;13.326;2022-10-16T08:37:44;101055.41;;;17.20;89.38
15750;BME280;7976;52.526;13.326;2022-10-16T08:40:18;101057.28;;;17.18;89.42
15750;BME280;7976;52.526;13.326;2022-10-16T08:43:08;101050.13;;;17.20;89.71
15750;BME280;7976;52.526;13.326;2022-10-16T08:45:52;101044.63;;;17.23;89.42
15750;BME280;7976;52.526;13.326;2022-10-16T08:48:27;101055.88;;;17.27;89.69
15750;BME280;7976;52.526;13.326;2022-10-16T08:50:56;101048.72;;;17.29;89.37
15750;BME280;7976;52.526;13.326;2022-10-16T08:53:31;101053.16;;;17.28;89.20
15750;BME280;7976;52.526;13.326;2022-10-16T08:56:01;101060.16;;;17.29;89.31
15750;BME280;7976;52.526;13.326;2022-10-16T08:58:30;101063.38;;;17.34;88.91
15750;BME280;7976;52.526;13.326;2022-10-16T09:01:03;101070.38;;;17.35;89.08
15750;BME280;7976;52.526;13.326;2022-10-16T09:03:54;101067.44;;;17.40;89.12
15750;BME280;7976;52.526;13.326;2022-10-16T09:06:36;101076.84;;;17.45;88.57
15750;BME280;7976;52.526;13.326;2022-10-16T09:09:32;101086.88;;;17.55;88.63
15750;BME280;7976;52.526;13.326;2022-10-16T09:12:12;101084.63;;;17.63;88.18
15750;BME280;7976;52.526;13.326;2022-10-16T09:14:58;101098.34;;;17.69;88.20
15750;BME280;7976;52.526;13.326;2022-10-16T09:17:37;101098.06;;;17.74;88.08
15750;BME280;7976;52.526;13.326;2022-10-16T09:20:23;101096.16;;;17.76;88.05
15750;BME280;7976;52.526;13.326;2022-10-16T09:22:55;101093.41;;;17.77;87.96
15750;BME280;7976;52.526;13.326;2022-10-16T09:25:28;101086.25;;;17.79;88.05
15750;BME280;7976;52.526;13.326;2022-10-16T09:27:55;101078.97;;;17.83;87.67
15750;BME280;7976;52.526;13.326;2022-10-16T09:30:28;101080.56;;;17.85;87.26
15750;BME280;7976;52.526;13.326;2022-10-16T09:32:58;101083.03;;;17.88;87.32
15750;BME280;7976;52.526;13.326;2022-10-16T09:35:33;101088.16;;;17.91;87.23
15750;BME280;7976;52.526;13.326;2022-10-16T09:38:02;101088.81;;;17.95;87.07
15750;BME280;7976;52.526;13.326;2022-10-16T09:40:32;101090.41;;;17.97;87.21
15750;BME280;7976;52.526;13.326;2022-10-16T09:43:20;101098.09;;;18.02;86.87
15750;BME280;7976;52.526;13.326;2022-10-16T09:45:58;101097.03;;;18.04;86.89
15750;BME280;7976;52.526;13.326;2022-10-16T09:48:31;101115.47;;;18.06;86.42
15750;BME280;7976;52.526;13.326;2022-10-16T09:51:03;101110.19;;;18.06;85.97
15750;BME280;7976;52.526;13.326;2022-10-16T09:53:42;101110.28;;;18.04;86.09
15750;BME280;7976;52.526;13.326;2022-10-16T09:56:11;101116.44;;;18.05;86.00
15750;BME280;7976;52.526;13.326;2022-10-16T09:58:50;101130.44;;;18.07;85.64
15750;BME280;7976;52.526;13.326;2022-10-16T10:01:24;101116.69;;;18.14;85.37
15750;BME280;7976;52.526;13.326;2022-10-16T10:03:57;101124.09;;;18.23;85.44
15750;BME280;7976;52.526;13.326;2022-10-16T10:06:32;101127.00;;;18.33;84.53
15750;BME280;7976;52.526;13.326;2022-10-16T10:09:05;101134.56;;;18.39;84.76
15750;BME280;7976;52.526;13.326;2022-10-16T10:11:49;101137.22;;;18.39;84.14
15750;BME280;7976;52.526;13.326;2022-10-16T10:14:22;101126.72;;;18.37;84.32
15750;BME280;7976;52.526;13.326;2022-10-16T10:17:01;101134.75;;;18.36;83.93
15750;BME280;7976;52.526;13.326;2022-10-16T10:19:28;101136.47;;;18.37;83.96
15750;BME280;7976;52.526;13.326;2022-10-16T10:21:55;101139.03;;;18.38;83.77
15750;BME280;7976;52.526;13.326;2022-10-16T10:24:25;101140.81;;;18.38;83.89
15750;BME280;7976;52.526;13.326;2022-10-16T10:27:05;101128.59;;;18.35;83.61
15750;BME280;7976;52.526;13.326;2022-10-16T10:29:48;101142.03;;;18.32;83.43
15750;BME280;7976;52.526;13.326;2022-10-16T10:32:32;101151.88;;;18.30;83.70
15750;BME280;7976;52.526;13.326;2022-10-16T10:35:14;101155.50;;;18.29;83.71
15750;BME280;7976;52.526;13.326;2022-10-16T10:38:05;101172.16;;;18.31;83.48
15750;BME280;7976;52.526;13.326;2022-10-16T10:40:46;101171.09;;;18.34;83.39
15750;BME280;7976;52.526;13.326;2022-10-16T10:43:39;101154.88;;;18.40;82.96
15750;BME280;7976;52.526;13.326;2022-10-16T10:46:18;101157.59;;;18.52;82.83
15750;BME280;7976;52.526;13.326;2022-10-16T10:49:04;101152.47;;;18.63;82.45
15750;BME280;7976;52.526;13.326;2022-10-16T10:51:47;101159.00;;;18.72;82.25
15750;BME280;7976;52.526;13.326;2022-10-16T10:54:26;101156.50;;;18.83;82.03
15750;BME280;7976;52.526;13.326;2022-10-16T10:57:00;101163.88;;;18.92;81.81
15750;BME280;7976;52.526;13.326;2022-10-16T10:59:48;101154.91;;;19.07;81.14
15750;BME280;7976;52.526;13.326;2022-10-16T11:02:26;101151.97;;;19.24;80.69
15750;BME280;7976;52.526;13.326;2022-10-16T11:05:23;101158.94;;;19.39;79.61
15750;BME280;7976;52.526;13.326;2022-10-16T11:07:59;101153.78;;;19.50;78.99
15750;BME280;7976;52.526;13.326;2022-10-16T11:10:34;101165.88;;;19.54;79.00
15750;BME280;7976;52.526;13.326;2022-10-16T11:13:20;101164.19;;;19.53;78.25
15750;BME280;7976;52.526;13.326;2022-10-16T11:15:54;101161.63;;;19.52;78.52
15750;BME280;7976;52.526;13.326;2022-10-16T11:18:32;101151.94;;;19.51;77.72
15750;BME280;7976;52.526;13.326;2022-10-16T11:21:08;101158.44;;;19.47;77.55
15750;BME280;7976;52.526;13.326;2022-10-16T11:23:43;101155.25;;;19.42;77.35
15750;BME280;7976;52.526;13.326;2022-10-16T11:26:20;101155.75;;;19.34;76.77
15750;BME280;7976;52.526;13.326;2022-10-16T11:28:50;101159.66;;;19.29;76.15
15750;BME280;7976;52.526;13.326;2022-10-16T11:31:28;101159.22;;;19.22;76.71
15750;BME280;7976;52.526;13.326;2022-10-16T11:34:06;101158.72;;;19.16;76.27
15750;BME280;7976;52.526;13.326;2022-10-16T11:36:47;101157.25;;;19.12;76.42
15750;BME280;7976;52.526;13.326;2022-10-16T11:39:21;101162.09;;;19.05;76.22
15750;BME280;7976;52.526;13.326;2022-10-16T11:41:52;101153.59;;;19.00;76.70
15750;BME280;7976;52.526;13.326;2022-10-16T11:44:43;101147.63;;;18.97;76.19
15750;BME280;7976;52.526;13.326;2022-10-16T11:47:30;101154.72;;;18.96;76.55
15750;BME280;7976;52.526;13.326;2022-10-16T11:50:06;101159.28;;;18.94;76.82
15750;BME280;7976;52.526;13.326;2022-10-16T11:52:46;101161.22;;;18.92;76.60
15750;BME280;7976;52.526;13.326;2022-10-16T11:55:20;101164.03;;;18.89;76.94
15750;BME280;7976;52.526;13.326;2022-10-16T11:57:52;101166.13;;;18.84;76.31
15750;BME280;7976;52.526;13.326;2022-10-16T12:00:23;101172.72;;;18.79;76.13
15750;BME280;7976;52.526;13.326;2022-10-16T12:03:01;101178.28;;;18.74;76.32
15750;BME280;7976;52.526;13.326;2022-10-16T12:05:54;101173.19;;;18.71;75.85
15750;BME280;7976;52.526;13.326;2022-10-16T12:08:23;101177.63;;;18.70;75.33
15750;BME280;7976;52.526;13.326;2022-10-16T12:10:51;101189.84;;;18.73;75.50
15750;BME280;7976;52.526;13.326;2022-10-16T12:13:30;101194.66;;;18.81;74.70
15750;BME280;7976;52.526;13.326;2022-10-16T12:16:22;101191.53;;;18.88;74.18
15750;BME280;7976;52.526;13.326;2022-10-16T12:19:03;101195.41;;;18.97;73.94
15750;BME280;7976;52.526;13.326;2022-10-16T12:21:36;101198.59;;;19.02;72.95
15750;BME280;7976;52.526;13.326;2022-10-16T12:24:06;101199.25;;;19.05;72.84
15750;BME280;7976;52.526;13.326;2022-10-16T12:26:38;101198.19;;;19.08;72.11
15750;BME280;7976;52.526;13.326;2022-10-16T12:29:23;101195.25;;;19.12;72.21
15750;BME280;7976;52.526;13.326;2022-10-16T12:31:54;101198.66;;;19.14;71.53
15750;BME280;7976;52.526;13.326;2022-10-16T12:34:28;101201.13;;;19.17;71.31
15750;BME280;7976;52.526;13.326;2022-10-16T12:37:08;101205.47;;;19.18;71.56
15750;BME280;7976;52.526;13.326;2022-10-16T12:39:37;101206.22;;;19.20;70.85
15750;BME280;7976;52.526;13.326;2022-10-16T12:42:21;101213.97;;;19.23;70.28
15750;BME280;7976;52.526;13.326;2022-10-16T12:44:48;101212.09;;;19.25;69.89
15750;BME280;7976;52.526;13.326;2022-10-16T12:47:22;101204.88;;;19.27;69.41
15750;BME280;7976;52.526;13.326;2022-10-16T12:49:53;101209.22;;;19.28;69.01
15750;BME280;7976;52.526;13.326;2022-10-16T12:52:34;101216.09;;;19.32;68.53
15750;BME280;7976;52.526;13.326;2022-10-16T12:55:09;101223.63;;;19.38;68.88
15750;BME280;7976;52.526;13.326;2022-10-16T13:00:45;101220.94;;;19.52;67.30
15750;BME280;7976;52.526;13.326;2022-10-16T13:03:54;101220.06;;;19.52;67.17
15750;BME280;7976;52.526;13.326;2022-10-16T13:06:38;101224.94;;;19.45;67.66
15750;BME280;7976;52.526;13.326;2022-10-16T13:09:36;101230.47;;;19.42;67.42
15750;BME280;7976;52.526;13.326;2022-10-16T13:12:33;101235.22;;;19.37;67.66
15750;BME280;7976;52.526;13.326;2022-10-16T13:15:35;101238.59;;;19.39;67.94
15750;BME280;7976;52.526;13.326;2022-10-16T13:18:15;101241.47;;;19.36;67.34